sensor_id;sensor_type;location;lat;lon;timestamp;temperature;humidity
5210;DHT22;2624;48.048;11.706;2024-03-02T00:04:16;5.20;99.90
5210;DHT22;2624;48.048;11.706;2024-03-02T00:09:18;5.10;99.90
5210;DHT22;2624;48.048;11.706;2024-03-02T00:14:21;5.10;99.90
5210;DHT22;2624;48.048;11.706;2024-03-02T00:19:24;5.10;99.90
5210;DHT22;2624;48.048;11.706;2024-03-02T00:24:32;4.90;99.90
5210;DHT22;2624;48.048;11.706;2024-03-02T00:29:36;4.80;99.90
5210;DHT22;2624;48.048;11.706;2024-03-02T00:34:38;4.80;99.90
5210;DHT22;2624;48.048;11.706;2024-03-02T00:39:40;4.80;99.90
5210;DHT22;2624;48.048;11.706;2024-03-02T00:44:43;4.90;99.90
5210;DHT22;2624;48.048;11.706;2024-03-02T00:49:47;5.00;99.90
5210;DHT22;2624;48.048;11.706;2024-03-02T00:54:55;4.90;99.90
5210;DHT22;2624;48.048;11.706;2024-03-02T00:59:59;4.80;99.90
5210;DHT22;2624;48.048;11.706;2024-03-02T01:05:01;4.80;99.90
5210;DHT22;2624;48.048;11.706;2024-03-02T01:10:04;4.70;99.90
5210;DHT22;2624;48.048;11.706;2024-03-02T01:15:08;4.80;99.90
5210;DHT22;2624;48.048;11.706;2024-03-02T01:20:10;4.70;99.90
5210;DHT22;2624;48.048;11.706;2024-03-02T01:25:12;4.80;99.90
5210;DHT22;2624;48.048;11.706;2024-03-02T01:30:16;4.90;99.90
5210;DHT22;2624;48.048;11.706;2024-03-02T01:35:18;4.80;99.90
5210;DHT22;2624;48.048;11.706;2024-03-02T01:40:19;4.80;99.90
5210;DHT22;2624;48.048;11.706;2024-03-02T01:45:22;4.70;99.90
5210;DHT22;2624;48.048;11.706;2024-03-02T01:50:25;4.70;99.90
5210;DHT22;2624;48.048;11.706;2024-03-02T01:55:27;4.80;99.90
5210;DHT22;2624;48.048;11.706;2024-03-02T02:00:32;4.80;99.90
5210;DHT22;2624;48.048;11.706;2024-03-02T02:05:34;5.10;99.90
5210;DHT22;2624;48.048;11.706;2024-03-02T02:10:36;5.20;99.90
5210;DHT22;2624;48.048;11.706;2024-03-02T02:15:40;5.20;99.90
5210;DHT22;2624;48.048;11.706;2024-03-02T02:20:41;5.20;99.90
5210;DHT22;2624;48.048;11.706;2024-03-02T02:25:45;5.20;99.90
5210;DHT22;2624;48.048;11.706;2024-03-02T02:30:47;5.20;99.90
5210;DHT22;2624;48.048;11.706;2024-03-02T02:35:49;5.20;99.90
5210;DHT22;2624;48.048;11.706;2024-03-02T02:40:52;5.20;99.90
5210;DHT22;2624;48.048;11.706;2024-03-02T02:45:53;4.90;99.90
5210;DHT22;2624;48.048;11.706;2024-03-02T02:50:55;4.90;99.90
5210;DHT22;2624;48.048;11.706;2024-03-02T02:55:58;5.10;99.90
5210;DHT22;2624;48.048;11.706;2024-03-02T03:01:00;5.10;99.90
5210;DHT22;2624;48.048;11.706;2024-03-02T03:06:02;4.70;99.90
5210;DHT22;2624;48.048;11.706;2024-03-02T03:11:05;4.70;99.90
5210;DHT22;2624;48.048;11.706;2024-03-02T03:16:07;4.90;99.90
5210;DHT22;2624;48.048;11.706;2024-03-02T03:21:09;5.10;99.90
5210;DHT22;2624;48.048;11.706;2024-03-02T03:26:12;5.10;99.90
5210;DHT22;2624;48.048;11.706;2024-03-02T03:31:13;5.10;99.90
5210;DHT22;2624;48.048;11.706;2024-03-02T03:36:15;5.10;99.90
5210;DHT22;2624;48.048;11.706;2024-03-02T03:41:18;5.10;99.90
5210;DHT22;2624;48.048;11.706;2024-03-02T03:46:20;5.10;99.90
5210;DHT22;2624;48.048;11.706;2024-03-02T03:51:22;5.20;99.90
5210;DHT22;2624;48.048;11.706;2024-03-02T03:56:25;5.10;99.90
5210;DHT22;2624;48.048;11.706;2024-03-02T04:01:27;5.10;99.90
5210;DHT22;2624;48.048;11.706;2024-03-02T04:06:29;5.10;99.90
5210;DHT22;2624;48.048;11.706;2024-03-02T04:11:32;5.10;99.90
5210;DHT22;2624;48.048;11.706;2024-03-02T04:16:34;5.00;99.90
5210;DHT22;2624;48.048;11.706;2024-03-02T04:21:35;4.90;99.90
5210;DHT22;2624;48.048;11.706;2024-03-02T04:26:39;5.00;99.90
5210;DHT22;2624;48.048;11.706;2024-03-02T04:31:40;5.00;99.90
5210;DHT22;2624;48.048;11.706;2024-03-02T04:36:42;4.70;99.90
5210;DHT22;2624;48.048;11.706;2024-03-02T04:41:45;4.70;99.90
5210;DHT22;2624;48.048;11.706;2024-03-02T04:46:48;4.60;99.90
5210;DHT22;2624;48.048;11.706;2024-03-02T04:51:49;4.50;99.90
5210;DHT22;2624;48.048;11.706;2024-03-02T04:56:53;4.70;99.90
5210;DHT22;2624;48.048;11.706;2024-03-02T05:01:54;4.90;99.90
5210;DHT22;2624;48.048;11.706;2024-03-02T05:06:56;5.00;99.90
5210;DHT22;2624;48.048;11.706;2024-03-02T05:11:59;5.10;99.90
5210;DHT22;2624;48.048;11.706;2024-03-02T05:17:23;5.10;99.90
5210;DHT22;2624;48.048;11.706;2024-03-02T05:22:25;5.10;99.90
5210;DHT22;2624;48.048;11.706;2024-03-02T05:27:28;5.10;99.90
5210;DHT22;2624;48.048;11.706;2024-03-02T05:32:29;5.10;99.90
5210;DHT22;2624;48.048;11.706;2024-03-02T05:37:31;5.00;99.90
5210;DHT22;2624;48.048;11.706;2024-03-02T05:42:34;5.00;99.90
5210;DHT22;2624;48.048;11.706;2024-03-02T05:47:36;4.90;99.90
5210;DHT22;2624;48.048;11.706;2024-03-02T05:52:38;4.80;99.90
5210;DHT22;2624;48.048;11.706;2024-03-02T05:57:41;4.80;99.90
5210;DHT22;2624;48.048;11.706;2024-03-02T06:02:59;4.90;99.90
5210;DHT22;2624;48.048;11.706;2024-03-02T06:08:01;4.80;99.90
5210;DHT22;2624;48.048;11.706;2024-03-02T06:13:04;4.70;99.90
5210;DHT22;2624;48.048;11.706;2024-03-02T06:18:06;4.70;99.90
5210;DHT22;2624;48.048;11.706;2024-03-02T06:23:08;4.70;99.90
5210;DHT22;2624;48.048;11.706;2024-03-02T06:28:12;4.70;99.90
5210;DHT22;2624;48.048;11.706;2024-03-02T06:33:15;4.50;99.90
5210;DHT22;2624;48.048;11.706;2024-03-02T06:38:17;4.50;99.90
5210;DHT22;2624;48.048;11.706;2024-03-02T06:43:21;4.60;99.90
5210;DHT22;2624;48.048;11.706;2024-03-02T06:48:23;4.90;99.90
5210;DHT22;2624;48.048;11.706;2024-03-02T06:53:25;5.00;99.90
5210;DHT22;2624;48.048;11.706;2024-03-02T06:58:29;4.90;99.90
5210;DHT22;2624;48.048;11.706;2024-03-02T07:03:30;4.80;99.90
5210;DHT22;2624;48.048;11.706;2024-03-02T07:08:33;4.70;99.90
5210;DHT22;2624;48.048;11.706;2024-03-02T07:13:36;4.80;99.90
5210;DHT22;2624;48.048;11.706;2024-03-02T07:18:38;4.90;99.90
5210;DHT22;2624;48.048;11.706;2024-03-02T07:23:42;4.90;99.90
5210;DHT22;2624;48.048;11.706;2024-03-02T07:28:45;4.90;99.90
5210;DHT22;2624;48.048;11.706;2024-03-02T07:33:48;4.90;99.90
5210;DHT22;2624;48.048;11.706;2024-03-02T07:38:50;4.90;99.90
5210;DHT22;2624;48.048;11.706;2024-03-02T07:43:53;4.90;99.90
5210;DHT22;2624;48.048;11.706;2024-03-02T07:48:54;4.90;99.90
5210;DHT22;2624;48.048;11.706;2024-03-02T07:53:56;4.90;99.90
5210;DHT22;2624;48.048;11.706;2024-03-02T07:58:59;5.00;99.90
5210;DHT22;2624;48.048;11.706;2024-03-02T08:04:02;5.10;99.90
5210;DHT22;2624;48.048;11.706;2024-03-02T08:09:04;5.10;99.90
5210;DHT22;2624;48.048;11.706;2024-03-02T08:14:11;5.10;99.90
5210;DHT22;2624;48.048;11.706;2024-03-02T08:19:13;5.10;99.90
5210;DHT22;2624;48.048;11.706;2024-03-02T08:24:15;5.10;99.90
5210;DHT22;2624;48.048;11.706;2024-03-02T08:29:18;5.20;99.90
5210;DHT22;2624;48.048;11.706;2024-03-02T08:34:20;5.20;99.90
5210;DHT22;2624;48.048;11.706;2024-03-02T08:39:22;5.30;99.90
5210;DHT22;2624;48.048;11.706;2024-03-02T08:44:25;5.40;99.90
5210;DHT22;2624;48.048;11.706;2024-03-02T08:49:26;5.50;99.90
5210;DHT22;2624;48.048;11.706;2024-03-02T08:54:28;5.70;99.90
5210;DHT22;2624;48.048;11.706;2024-03-02T08:59:31;5.90;99.90
5210;DHT22;2624;48.048;11.706;2024-03-02T09:04:33;6.30;99.90
5210;DHT22;2624;48.048;11.706;2024-03-02T09:09:35;6.60;99.90
5210;DHT22;2624;48.048;11.706;2024-03-02T09:14:40;6.30;99.90
5210;DHT22;2624;48.048;11.706;2024-03-02T09:19:42;6.40;99.90
5210;DHT22;2624;48.048;11.706;2024-03-02T09:24:44;6.50;99.90
5210;DHT22;2624;48.048;11.706;2024-03-02T09:29:47;7.00;99.90
5210;DHT22;2624;48.048;11.706;2024-03-02T09:34:49;7.20;99.90
5210;DHT22;2624;48.048;11.706;2024-03-02T09:39:50;7.20;99.90
5210;DHT22;2624;48.048;11.706;2024-03-02T09:44:53;7.20;99.90
5210;DHT22;2624;48.048;11.706;2024-03-02T09:49:55;7.90;99.90
5210;DHT22;2624;48.048;11.706;2024-03-02T09:54:57;8.30;99.90
5210;DHT22;2624;48.048;11.706;2024-03-02T10:00:00;8.70;99.90
5210;DHT22;2624;48.048;11.706;2024-03-02T10:05:02;9.00;99.90
5210;DHT22;2624;48.048;11.706;2024-03-02T10:10:14;9.40;99.90
5210;DHT22;2624;48.048;11.706;2024-03-02T10:15:25;9.80;99.90
5210;DHT22;2624;48.048;11.706;2024-03-02T10:20:27;9.60;99.90
5210;DHT22;2624;48.048;11.706;2024-03-02T10:25:31;9.20;99.90
5210;DHT22;2624;48.048;11.706;2024-03-02T10:30:35;10.20;99.90
5210;DHT22;2624;48.048;11.706;2024-03-02T10:35:38;9.50;99.90
5210;DHT22;2624;48.048;11.706;2024-03-02T10:40:40;9.60;99.90
5210;DHT22;2624;48.048;11.706;2024-03-02T10:45:47;10.10;99.90
5210;DHT22;2624;48.048;11.706;2024-03-02T10:50:51;9.60;99.90
5210;DHT22;2624;48.048;11.706;2024-03-02T10:55:58;10.10;99.90
5210;DHT22;2624;48.048;11.706;2024-03-02T11:01:05;11.10;99.90
5210;DHT22;2624;48.048;11.706;2024-03-02T11:06:10;11.10;99.90
5210;DHT22;2624;48.048;11.706;2024-03-02T11:11:18;11.20;99.90
5210;DHT22;2624;48.048;11.706;2024-03-02T11:16:30;11.00;99.90
5210;DHT22;2624;48.048;11.706;2024-03-02T11:21:36;11.10;99.90
5210;DHT22;2624;48.048;11.706;2024-03-02T11:26:38;10.50;99.90
5210;DHT22;2624;48.048;11.706;2024-03-02T11:31:59;11.00;99.90
5210;DHT22;2624;48.048;11.706;2024-03-02T11:37:02;11.80;99.90
5210;DHT22;2624;48.048;11.706;2024-03-02T11:42:06;12.50;99.90
5210;DHT22;2624;48.048;11.706;2024-03-02T11:47:11;12.50;99.90
5210;DHT22;2624;48.048;11.706;2024-03-02T11:52:15;12.20;99.90
5210;DHT22;2624;48.048;11.706;2024-03-02T11:57:19;12.80;99.90
5210;DHT22;2624;48.048;11.706;2024-03-02T12:02:23;11.30;99.90
5210;DHT22;2624;48.048;11.706;2024-03-02T12:07:25;12.90;99.90
5210;DHT22;2624;48.048;11.706;2024-03-02T12:12:28;13.30;99.90
5210;DHT22;2624;48.048;11.706;2024-03-02T12:17:31;13.30;99.90
5210;DHT22;2624;48.048;11.706;2024-03-02T12:22:32;13.00;99.90
5210;DHT22;2624;48.048;11.706;2024-03-02T12:27:34;13.50;99.90
5210;DHT22;2624;48.048;11.706;2024-03-02T12:32:37;13.50;99.90
5210;DHT22;2624;48.048;11.706;2024-03-02T12:42:46;13.20;99.90
5210;DHT22;2624;48.048;11.706;2024-03-02T12:47:50;13.60;99.90
5210;DHT22;2624;48.048;11.706;2024-03-02T12:52:52;13.90;99.90
5210;DHT22;2624;48.048;11.706;2024-03-02T12:57:54;13.90;99.90
5210;DHT22;2624;48.048;11.706;2024-03-02T13:02:58;13.70;99.90
5210;DHT22;2624;48.048;11.706;2024-03-02T13:08:03;13.80;99.90
5210;DHT22;2624;48.048;11.706;2024-03-02T13:13:06;13.70;99.90
5210;DHT22;2624;48.048;11.706;2024-03-02T13:18:09;14.00;99.90
5210;DHT22;2624;48.048;11.706;2024-03-02T13:23:10;14.30;99.90
5210;DHT22;2624;48.048;11.706;2024-03-02T13:28:12;13.80;99.90
5210;DHT22;2624;48.048;11.706;2024-03-02T13:33:15;13.60;99.90
5210;DHT22;2624;48.048;11.706;2024-03-02T13:38:22;13.70;99.90
5210;DHT22;2624;48.048;11.706;2024-03-02T13:43:24;13.80;99.90
5210;DHT22;2624;48.048;11.706;2024-03-02T13:48:27;13.70;99.90
5210;DHT22;2624;48.048;11.706;2024-03-02T13:53:29;13.90;99.90
5210;DHT22;2624;48.048;11.706;2024-03-02T13:58:32;13.80;99.90
5210;DHT22;2624;48.048;11.706;2024-03-02T14:03:35;13.90;99.90
5210;DHT22;2624;48.048;11.706;2024-03-02T14:08:37;13.80;99.90
5210;DHT22;2624;48.048;11.706;2024-03-02T14:13:39;13.70;99.90
5210;DHT22;2624;48.048;11.706;2024-03-02T14:18:42;13.60;99.90
5210;DHT22;2624;48.048;11.706;2024-03-02T14:23:44;13.70;99.90
5210;DHT22;2624;48.048;11.706;2024-03-02T14:28:46;13.40;99.90
5210;DHT22;2624;48.048;11.706;2024-03-02T14:33:49;13.30;99.90
5210;DHT22;2624;48.048;11.706;2024-03-02T14:38:51;13.30;99.90
5210;DHT22;2624;48.048;11.706;2024-03-02T14:43:52;13.30;99.90
5210;DHT22;2624;48.048;11.706;2024-03-02T14:48:56;13.30;99.90
5210;DHT22;2624;48.048;11.706;2024-03-02T14:53:58;13.30;99.90
5210;DHT22;2624;48.048;11.706;2024-03-02T14:59:00;13.30;99.90
5210;DHT22;2624;48.048;11.706;2024-03-02T15:04:04;13.20;99.90
5210;DHT22;2624;48.048;11.706;2024-03-02T15:09:05;13.10;99.90
5210;DHT22;2624;48.048;11.706;2024-03-02T15:14:07;13.00;99.90
5210;DHT22;2624;48.048;11.706;2024-03-02T15:19:10;13.00;99.90
5210;DHT22;2624;48.048;11.706;2024-03-02T15:24:12;12.90;99.90
5210;DHT22;2624;48.048;11.706;2024-03-02T15:29:14;12.80;99.90
5210;DHT22;2624;48.048;11.706;2024-03-02T15:34:17;12.80;99.90
5210;DHT22;2624;48.048;11.706;2024-03-02T15:39:19;12.60;99.90
5210;DHT22;2624;48.048;11.706;2024-03-02T15:44:21;12.60;99.90
5210;DHT22;2624;48.048;11.706;2024-03-02T15:49:24;12.50;99.90
5210;DHT22;2624;48.048;11.706;2024-03-02T15:54:26;12.40;99.90
5210;DHT22;2624;48.048;11.706;2024-03-02T15:59:28;12.40;99.90
5210;DHT22;2624;48.048;11.706;2024-03-02T16:04:31;12.40;99.90
5210;DHT22;2624;48.048;11.706;2024-03-02T16:09:34;12.50;99.90
5210;DHT22;2624;48.048;11.706;2024-03-02T16:14:35;12.30;99.90
5210;DHT22;2624;48.048;11.706;2024-03-02T16:19:38;12.20;99.90
5210;DHT22;2624;48.048;11.706;2024-03-02T16:24:41;12.20;99.90
5210;DHT22;2624;48.048;11.706;2024-03-02T16:29:43;12.00;99.90
5210;DHT22;2624;48.048;11.706;2024-03-02T16:34:46;11.80;99.90
5210;DHT22;2624;48.048;11.706;2024-03-02T16:39:47;11.70;99.90
5210;DHT22;2624;48.048;11.706;2024-03-02T16:44:49;11.60;99.90
5210;DHT22;2624;48.048;11.706;2024-03-02T16:49:56;11.50;99.90
5210;DHT22;2624;48.048;11.706;2024-03-02T16:54:58;11.60;99.90
5210;DHT22;2624;48.048;11.706;2024-03-02T17:00:00;11.70;99.90
5210;DHT22;2624;48.048;11.706;2024-03-02T17:05:04;11.50;99.90
5210;DHT22;2624;48.048;11.706;2024-03-02T17:10:07;11.10;99.90
5210;DHT22;2624;48.048;11.706;2024-03-02T17:15:09;11.30;99.90
5210;DHT22;2624;48.048;11.706;2024-03-02T17:20:13;11.10;99.90
5210;DHT22;2624;48.048;11.706;2024-03-02T17:25:15;11.30;99.90
5210;DHT22;2624;48.048;11.706;2024-03-02T17:30:17;11.30;99.90
5210;DHT22;2624;48.048;11.706;2024-03-02T17:35:22;11.30;99.90
5210;DHT22;2624;48.048;11.706;2024-03-02T17:40:24;11.30;99.90
5210;DHT22;2624;48.048;11.706;2024-03-02T17:45:26;11.20;99.90
5210;DHT22;2624;48.048;11.706;2024-03-02T17:50:30;11.20;99.90
5210;DHT22;2624;48.048;11.706;2024-03-02T17:55:31;11.20;99.90
5210;DHT22;2624;48.048;11.706;2024-03-02T18:00:33;11.10;99.90
5210;DHT22;2624;48.048;11.706;2024-03-02T18:05:36;11.00;99.90
5210;DHT22;2624;48.048;11.706;2024-03-02T18:10:38;10.80;99.90
5210;DHT22;2624;48.048;11.706;2024-03-02T18:15:39;10.80;99.90
5210;DHT22;2624;48.048;11.706;2024-03-02T18:20:43;10.60;99.90
5210;DHT22;2624;48.048;11.706;2024-03-02T18:25:45;10.80;99.90
5210;DHT22;2624;48.048;11.706;2024-03-02T18:30:47;10.80;99.90
5210;DHT22;2624;48.048;11.706;2024-03-02T18:35:50;10.60;99.90
5210;DHT22;2624;48.048;11.706;2024-03-02T18:40:52;10.40;99.90
5210;DHT22;2624;48.048;11.706;2024-03-02T18:45:54;10.10;99.90
5210;DHT22;2624;48.048;11.706;2024-03-02T18:50:57;9.80;99.90
5210;DHT22;2624;48.048;11.706;2024-03-02T18:56:00;9.90;99.90
5210;DHT22;2624;48.048;11.706;2024-03-02T19:01:01;10.00;99.90
5210;DHT22;2624;48.048;11.706;2024-03-02T19:06:05;9.90;99.90
5210;DHT22;2624;48.048;11.706;2024-03-02T19:11:12;10.00;99.90
5210;DHT22;2624;48.048;11.706;2024-03-02T19:16:15;10.20;99.90
5210;DHT22;2624;48.048;11.706;2024-03-02T19:21:18;9.80;99.90
5210;DHT22;2624;48.048;11.706;2024-03-02T19:26:20;9.60;99.90
5210;DHT22;2624;48.048;11.706;2024-03-02T19:31:22;9.90;99.90
5210;DHT22;2624;48.048;11.706;2024-03-02T19:36:25;9.80;99.90
5210;DHT22;2624;48.048;11.706;2024-03-02T19:41:28;9.70;99.90
5210;DHT22;2624;48.048;11.706;2024-03-02T19:46:30;9.60;99.90
5210;DHT22;2624;48.048;11.706;2024-03-02T19:51:33;9.30;99.90
5210;DHT22;2624;48.048;11.706;2024-03-02T19:56:35;8.80;99.90
5210;DHT22;2624;48.048;11.706;2024-03-02T20:01:37;9.40;99.90
5210;DHT22;2624;48.048;11.706;2024-03-02T20:06:41;9.60;99.90
5210;DHT22;2624;48.048;11.706;2024-03-02T20:11:43;9.60;99.90
5210;DHT22;2624;48.048;11.706;2024-03-02T20:16:45;9.60;99.90
5210;DHT22;2624;48.048;11.706;2024-03-02T20:21:48;9.50;99.90
5210;DHT22;2624;48.048;11.706;2024-03-02T20:26:50;9.50;99.90
5210;DHT22;2624;48.048;11.706;2024-03-02T20:31:52;9.40;99.90
5210;DHT22;2624;48.048;11.706;2024-03-02T20:36:57;9.20;99.90
5210;DHT22;2624;48.048;11.706;2024-03-02T20:42:01;9.30;99.90
5210;DHT22;2624;48.048;11.706;2024-03-02T20:47:03;9.20;99.90
5210;DHT22;2624;48.048;11.706;2024-03-02T20:52:07;9.20;99.90
5210;DHT22;2624;48.048;11.706;2024-03-02T20:57:08;8.90;99.90
5210;DHT22;2624;48.048;11.706;2024-03-02T21:02:10;8.50;99.90
5210;DHT22;2624;48.048;11.706;2024-03-02T21:07:13;8.90;99.90
5210;DHT22;2624;48.048;11.706;2024-03-02T21:12:15;8.90;99.90
5210;DHT22;2624;48.048;11.706;2024-03-02T21:17:17;8.90;99.90
5210;DHT22;2624;48.048;11.706;2024-03-02T21:22:20;8.80;99.90
5210;DHT22;2624;48.048;11.706;2024-03-02T21:27:22;8.80;99.90
5210;DHT22;2624;48.048;11.706;2024-03-02T21:32:24;8.60;99.90
5210;DHT22;2624;48.048;11.706;2024-03-02T21:37:27;8.30;99.90
5210;DHT22;2624;48.048;11.706;2024-03-02T21:42:29;8.00;99.90
5210;DHT22;2624;48.048;11.706;2024-03-02T21:47:31;7.70;99.90
5210;DHT22;2624;48.048;11.706;2024-03-02T21:52:34;7.90;99.90
5210;DHT22;2624;48.048;11.706;2024-03-02T21:57:36;7.90;99.90
5210;DHT22;2624;48.048;11.706;2024-03-02T22:02:37;8.20;99.90
5210;DHT22;2624;48.048;11.706;2024-03-02T22:07:41;8.30;99.90
5210;DHT22;2624;48.048;11.706;2024-03-02T22:12:42;8.20;99.90
5210;DHT22;2624;48.048;11.706;2024-03-02T22:17:44;8.20;99.90
5210;DHT22;2624;48.048;11.706;2024-03-02T22:22:47;8.10;99.90
5210;DHT22;2624;48.048;11.706;2024-03-02T22:27:49;8.00;99.90
5210;DHT22;2624;48.048;11.706;2024-03-02T22:32:55;7.60;99.90
5210;DHT22;2624;48.048;11.706;2024-03-02T22:37:59;7.00;99.90
5210;DHT22;2624;48.048;11.706;2024-03-02T22:43:00;7.10;99.90
5210;DHT22;2624;48.048;11.706;2024-03-02T22:48:02;7.20;99.90
5210;DHT22;2624;48.048;11.706;2024-03-02T22:53:05;7.60;99.90
5210;DHT22;2624;48.048;11.706;2024-03-02T22:58:07;7.00;99.90
5210;DHT22;2624;48.048;11.706;2024-03-02T23:03:09;6.50;99.90
5210;DHT22;2624;48.048;11.706;2024-03-02T23:08:12;6.40;99.90
5210;DHT22;2624;48.048;11.706;2024-03-02T23:13:14;6.20;99.90
5210;DHT22;2624;48.048;11.706;2024-03-02T23:18:15;6.60;99.90
5210;DHT22;2624;48.048;11.706;2024-03-02T23:23:19;6.60;99.90
5210;DHT22;2624;48.048;11.706;2024-03-02T23:28:20;6.50;99.90
5210;DHT22;2624;48.048;11.706;2024-03-02T23:33:22;6.50;99.90
5210;DHT22;2624;48.048;11.706;2024-03-02T23:38:25;6.70;99.90
5210;DHT22;2624;48.048;11.706;2024-03-02T23:43:27;6.90;99.90
5210;DHT22;2624;48.048;11.706;2024-03-02T23:48:29;6.50;99.90
5210;DHT22;2624;48.048;11.706;2024-03-02T23:53:32;6.00;99.90
5210;DHT22;2624;48.048;11.706;2024-03-02T23:58:34;5.70;99.90
